Time;durP1;ratioP1;P1;durP2;ratioP2;P2;SDS_P1;SDS_P2;PMS_P1;PMS_P2;Temp;Humidity;BMP_temperature;BMP_pressure;BME280_temperature;BME280_humidity;BME280_pressure;Samples;Min_cycle;Max_cycle;Signal;HPM_P1;HPM_P2
2023/03/05 00:02:15;;;;;;;;;;;;;;;;;;6301895;22;19991;-56
2023/03/05 00:04:42;;;;;;;;;;;;;;;;;;6301273;22;19919;-55
2023/03/05 00:07:11;;;;;;;;;;;;;;;;;;6271609;22;19994;-50
2023/03/05 00:09:45;;;;;;;;;;;;;;;;;;6300672;22;19980;-56
2023/03/05 00:12:19;;;;;;;;;;;;;;;;;;6301916;22;19954;-56
2023/03/05 00:14:46;;;;;;;;;;;;;;;;;;6301929;22;19919;-57
2023/03/05 00:17:13;;;;;;;;;;;;;;;;;;6265993;22;19934;-54
2023/03/05 00:19:47;;;;;;;;;;;;;;;;;;6269254;22;20396;-57
2023/03/05 00:22:14;;;;;;;;;;;;;;;;;;6268914;22;19950;-58
2023/03/05 00:24:48;;;;;;;;;;;;;;;;;;6268452;22;19965;-55
2023/03/05 00:27:15;;;;;;;;;;;;;;;;;;6270023;22;19933;-55
2023/03/05 00:29:49;;;;;;;;;;;;;;;;;;6270573;22;19965;-57
2023/03/05 00:32:16;;;;;;;;;;;;;;;;;;6270019;22;19998;-56
2023/03/05 00:34:50;;;;;;;;;;;;;;;;;;6269035;22;19950;-52
2023/03/05 00:37:17;;;;;;;;;;;;;;;;;;6266325;22;20257;-57
2023/03/05 00:39:51;;;;;;;;;;;;;;;;;;6265470;22;19915;-55
2023/03/05 00:42:18;;;;;;;;;;;;;;;;;;6270299;22;19919;-56
2023/03/05 00:44:45;;;;;;;;;;;;;;;;;;6268974;22;19915;-57
2023/03/05 00:47:19;;;;;;;;;;;;;;;;;;6268342;22;20329;-57
2023/03/05 00:49:46;;;;;;;;;;;;;;;;;;6268950;22;20003;-54
2023/03/05 00:52:20;;;;;;;;;;;;;;;;;;6270310;22;19921;-54
2023/03/05 00:54:47;;;;;;;;;;;;;;;;;;6270243;22;19925;-51
2023/03/05 00:57:14;;;;;;;;;;;;;;;;;;6271010;22;20324;-55
2023/03/05 00:59:48;;;;;;;;;;;;;;;;;;6269025;22;19954;-54
2023/03/05 01:02:15;;;;;;;;;;;;;;;;;;6270796;22;19922;-52
2023/03/05 01:04:49;;;;;;;;;;;;;;;;;;6269555;22;20260;-54
2023/03/05 01:07:16;;;;;;;;;;;;;;;;;;6270355;22;19947;-54
2023/03/05 01:09:50;;;;;;;;;;;;;;;;;;6267852;22;19925;-58
2023/03/05 01:12:17;;;;;;;;;;;;;;;;;;6269388;22;19950;-58
2023/03/05 01:14:44;;;;;;;;;;;;;;;;;;6269783;22;20400;-57
2023/03/05 01:17:18;;;;;;;;;;;;;;;;;;6292438;22;19915;-56
2023/03/05 01:19:45;;;;;;;;;;;;;;;;;;6300453;22;19915;-56
2023/03/05 01:22:19;;;;;;;;;;;;;;;;;;6299654;22;19919;-56
2023/03/05 01:24:46;;;;;;;;;;;;;;;;;;6272170;22;20424;-58
2023/03/05 01:27:13;;;;;;;;;;;;;;;;;;6302128;22;19945;-56
2023/03/05 01:29:47;;;;;;;;;;;;;;;;;;6299456;22;19925;-58
2023/03/05 01:32:14;;;;;;;;;;;;;;;;;;6299109;22;20001;-56
2023/03/05 01:34:48;;;;;;;;;;;;;;;;;;6299501;22;20582;-58
2023/03/05 01:37:15;;;;;;;;;;;;;;;;;;6300869;22;19925;-56
2023/03/05 01:39:49;;;;;;;;;;;;;;;;;;6299345;22;19954;-54
2023/03/05 01:42:18;;;;;;;;;;;;;;;;;;6301073;22;19946;-58
2023/03/05 01:44:52;;;;;;;;;;;;;;;;;;6300346;22;19961;-57
2023/03/05 01:47:19;;;;;;;;;;;;;;;;;;6298242;22;19919;-56
2023/03/05 01:49:46;;;;;;;;;;;;;;;;;;6300263;22;19918;-55
2023/03/05 01:52:20;;;;;;;;;;;;;;;;;;6298635;22;19925;-58
2023/03/05 01:54:47;;;;;;;;;;;;;;;;;;6297325;22;20474;-58
2023/03/05 01:57:21;;;;;;;;;;;;;;;;;;6275018;22;19925;-57
2023/03/05 01:59:48;;;;;;;;;;;;;;;;;;6299947;22;19919;-58
2023/03/05 02:02:15;;;;;;;;;;;;;;;;;;6299378;22;19915;-54
2023/03/05 02:04:49;;;;;;;;;;;;;;;;;;6297329;22;19985;-55
2023/03/05 02:07:16;;;;;;;;;;;;;;;;;;6300025;22;19922;-58
2023/03/05 02:09:50;;;;;;;;;;;;;;;;;;6299788;22;19950;-56
2023/03/05 02:12:17;;;;;;;;;;;;;;;;;;6272878;22;20025;-57
2023/03/05 02:14:44;;;;;;;;;;;;;;;;;;6298194;22;20435;-58
2023/03/05 02:17:18;;;;;;;;;;;;;;;;;;6301669;22;20408;-57
2023/03/05 02:19:45;;;;;;;;;;;;;;;;;;6300900;22;20434;-56
2023/03/05 02:22:19;;;;;;;;;;;;;;;;;;6300573;22;19919;-56
2023/03/05 02:24:46;;;;;;;;;;;;;;;;;;6302188;22;19922;-56
2023/03/05 02:27:13;;;;;;;;;;;;;;;;;;6303921;22;19945;-58
2023/03/05 02:29:47;;;;;;;;;;;;;;;;;;6301980;22;19997;-54
2023/03/05 02:32:14;;;;;;;;;;;;;;;;;;6301516;22;19919;-56
2023/03/05 02:34:41;;;;;;;;;;;;;;;;;;6299288;22;20335;-57
2023/03/05 02:37:15;;;;;;;;;;;;;;;;;;6301408;22;19918;-58
2023/03/05 02:39:49;;;;;;;;;;;;;;;;;;6301013;22;20520;-47
2023/03/05 02:42:16;;;;;;;;;;;;;;;;;;6301935;22;19989;-49
2023/03/05 02:44:43;;;;;;;;;;;;;;;;;;6301867;22;19942;-52
2023/03/05 02:47:17;;;;;;;;;;;;;;;;;;6302081;22;19925;-47
2023/03/05 02:49:44;;;;;;;;;;;;;;;;;;6300154;22;19915;-49
2023/03/05 02:52:18;;;;;;;;;;;;;;;;;;6302235;22;19997;-48
2023/03/05 02:54:45;;;;;;;;;;;;;;;;;;6302182;22;19922;-53
2023/03/05 02:57:12;;;;;;;;;;;;;;;;;;6303199;22;19923;-48
2023/03/05 02:59:46;;;;;;;;;;;;;;;;;;6302560;22;19946;-48
2023/03/05 03:02:13;;;;;;;;;;;;;;;;;;6302177;22;19923;-48
2023/03/05 03:04:40;;;;;;;;;;;;;;;;;;6301501;22;19915;-47
2023/03/05 03:07:14;;;;;;;;;;;;;;;;;;6302726;22;20009;-47
2023/03/05 03:09:42;;;;;;;;;;;;;;;;;;6302900;22;20359;-51
2023/03/05 03:12:15;;;;;;;;;;;;;;;;;;6301347;22;20450;-50
2023/03/05 03:14:42;;;;;;;;;;;;;;;;;;6302244;22;20009;-51
2023/03/05 03:17:09;;;;;;;;;;;;;;;;;;6301081;22;20357;-52
2023/03/05 03:19:43;;;;;;;;;;;;;;;;;;6301465;22;19950;-51
2023/03/05 03:22:10;;;;;;;;;;;;;;;;;;6302394;22;19954;-48
2023/03/05 03:24:44;;;;;;;;;;;;;;;;;;6301831;22;19921;-48
2023/03/05 03:27:11;;;;;;;;;;;;;;;;;;6300503;22;19914;-52
2023/03/05 03:29:38;;;;;;;;;;;;;;;;;;6301334;22;20292;-51
2023/03/05 03:32:12;;;;;;;;;;;;;;;;;;6298039;22;19946;-54
2023/03/05 03:34:39;;;;;;;;;;;;;;;;;;6273550;22;19984;-52
2023/03/05 03:37:13;;;;;;;;;;;;;;;;;;6302827;22;19998;-54
2023/03/05 03:39:40;;;;;;;;;;;;;;;;;;6301194;22;19997;-54
2023/03/05 03:42:07;;;;;;;;;;;;;;;;;;6300179;22;20418;-51
2023/03/05 03:44:41;;;;;;;;;;;;;;;;;;6302158;22;19925;-55
2023/03/05 03:47:08;;;;;;;;;;;;;;;;;;6300986;22;19954;-54
2023/03/05 03:49:42;;;;;;;;;;;;;;;;;;6301763;22;20419;-53
2023/03/05 03:52:09;;;;;;;;;;;;;;;;;;6301183;22;19969;-57
2023/03/05 03:54:36;;;;;;;;;;;;;;;;;;6301285;22;20360;-56
2023/03/05 03:57:10;;;;;;;;;;;;;;;;;;6301598;22;19921;-57
2023/03/05 03:59:37;;;;;;;;;;;;;;;;;;6302545;22;19921;-56
2023/03/05 04:02:11;;;;;;;;;;;;;;;;;;6299866;22;19964;-52
2023/03/05 04:04:38;;;;;;;;;;;;;;;;;;6300105;22;19922;-49
2023/03/05 04:07:05;;;;;;;;;;;;;;;;;;6300273;22;19993;-54
2023/03/05 04:09:39;;;;;;;;;;;;;;;;;;6300937;22;19921;-52
2023/03/05 04:12:06;;;;;;;;;;;;;;;;;;6297059;22;19950;-50
2023/03/05 04:14:40;;;;;;;;;;;;;;;;;;6301258;22;19921;-55
2023/03/05 04:17:07;;;;;;;;;;;;;;;;;;6301393;22;19989;-52
2023/03/05 04:19:34;;;;;;;;;;;;;;;;;;6299916;22;20292;-61
2023/03/05 04:22:08;;;;;;;;;;;;;;;;;;6299749;22;20366;-61
2023/03/05 04:24:35;;;;;;;;;;;;;;;;;;6297890;22;20237;-61
2023/03/05 04:27:09;;;;;;;;;;;;;;;;;;6300968;22;19938;-61
2023/03/05 04:29:36;;;;;;;;;;;;;;;;;;6301454;22;20322;-61
2023/03/05 04:32:03;;;;;;;;;;;;;;;;;;6299753;22;19914;-60
2023/03/05 04:34:37;;;;;;;;;;;;;;;;;;6299837;22;19979;-58
2023/03/05 04:37:04;;;;;;;;;;;;;;;;;;6300237;22;19954;-59
2023/03/05 04:39:31;;;;;;;;;;;;;;;;;;6301937;22;19914;-60
2023/03/05 04:42:05;;;;;;;;;;;;;;;;;;6272962;22;20037;-60
2023/03/05 04:44:32;;;;;;;;;;;;;;;;;;6300372;22;19954;-59
2023/03/05 04:46:59;;;;;;;;;;;;;;;;;;6298881;22;19998;-59
2023/03/05 04:49:33;;;;;;;;;;;;;;;;;;6300451;22;20315;-58
2023/03/05 04:52:00;;;;;;;;;;;;;;;;;;6299318;22;19921;-58
2023/03/05 04:54:34;;;;;;;;;;;;;;;;;;6301794;22;19998;-58
2023/03/05 04:57:01;;;;;;;;;;;;;;;;;;6300918;22;19915;-58
2023/03/05 04:59:28;;;;;;;;;;;;;;;;;;6300346;22;19918;-59
2023/03/05 05:02:02;;;;;;;;;;;;;;;;;;6302156;22;20001;-58
2023/03/05 05:04:29;;;;;;;;;;;;;;;;;;6300245;22;20021;-59
2023/03/05 05:07:03;;;;;;;;;;;;;;;;;;6301690;22;19960;-57
2023/03/05 05:09:30;;;;;;;;;;;;;;;;;;6300612;22;20285;-59
2023/03/05 05:11:57;;;;;;;;;;;;;;;;;;6300468;22;19954;-59
2023/03/05 05:14:31;;;;;;;;;;;;;;;;;;6300695;22;19997;-56
2023/03/05 05:16:58;;;;;;;;;;;;;;;;;;6300265;22;19921;-58
2023/03/05 05:19:32;;;;;;;;;;;;;;;;;;6300415;22;20338;-60
2023/03/05 05:21:59;;;;;;;;;;;;;;;;;;6301593;22;19919;-54
2023/03/05 05:24:26;;;;;;;;;;;;;;;;;;6299819;22;20002;-57
2023/03/05 05:27:00;;;;;;;;;;;;;;;;;;6274015;22;20002;-57
2023/03/05 05:29:27;;;;;;;;;;;;;;;;;;6298983;22;19915;-56
2023/03/05 05:32:01;;;;;;;;;;;;;;;;;;6300264;22;20002;-57
2023/03/05 05:34:28;;;;;;;;;;;;;;;;;;6298258;22;20321;-55
2023/03/05 05:36:55;;;;;;;;;;;;;;;;;;6301333;22;19953;-56
2023/03/05 05:39:29;;;;;;;;;;;;;;;;;;6300072;22;19986;-51
2023/03/05 05:41:56;;;;;;;;;;;;;;;;;;6300273;22;19918;-53
2023/03/05 05:44:30;;;;;;;;;;;;;;;;;;6299080;22;19997;-53
2023/03/05 05:46:57;;;;;;;;;;;;;;;;;;6300804;22;19941;-62
2023/03/05 05:49:24;;;;;;;;;;;;;;;;;;6299183;22;20001;-62
2023/03/05 05:51:58;;;;;;;;;;;;;;;;;;6301515;22;19954;-62
2023/03/05 05:54:25;;;;;;;;;;;;;;;;;;6299553;22;19925;-62
2023/03/05 05:56:59;;;;;;;;;;;;;;;;;;6300309;22;20172;-62
2023/03/05 05:59:26;;;;;;;;;;;;;;;;;;6298794;22;20419;-62
2023/03/05 06:02:00;;;;;;;;;;;;;;;;;;6298840;22;20553;-63
2023/03/05 06:04:27;;;;;;;;;;;;;;;;;;6298613;22;20313;-62
2023/03/05 06:06:54;;;;;;;;;;;;;;;;;;6299042;22;20401;-62
2023/03/05 06:09:28;;;;;;;;;;;;;;;;;;6299156;22;19993;-63
2023/03/05 06:11:55;;;;;;;;;;;;;;;;;;6300509;22;20396;-63
2023/03/05 06:14:29;;;;;;;;;;;;;;;;;;6299756;22;19993;-63
2023/03/05 06:16:56;;;;;;;;;;;;;;;;;;6296286;22;19919;-63
2023/03/05 06:19:30;;;;;;;;;;;;;;;;;;6299265;22;20002;-62
2023/03/05 06:21:57;;;;;;;;;;;;;;;;;;6298997;22;19983;-62
2023/03/05 06:24:24;;;;;;;;;;;;;;;;;;6297954;22;19925;-62
2023/03/05 06:26:58;;;;;;;;;;;;;;;;;;6300516;22;19954;-62
2023/03/05 06:29:25;;;;;;;;;;;;;;;;;;6298575;22;19994;-62
2023/03/05 06:31:59;;;;;;;;;;;;;;;;;;6299975;22;20404;-62
2023/03/05 06:34:26;;;;;;;;;;;;;;;;;;6297302;22;20817;-63
2023/03/05 06:36:53;;;;;;;;;;;;;;;;;;6298648;22;19993;-62
2023/03/05 06:39:27;;;;;;;;;;;;;;;;;;6298793;22;20006;-63
2023/03/05 06:41:54;;;;;;;;;;;;;;;;;;6300132;22;20332;-62
2023/03/05 06:44:28;;;;;;;;;;;;;;;;;;6298956;22;19919;-62
2023/03/05 06:46:55;;;;;;;;;;;;;;;;;;6295055;22;20330;-62
2023/03/05 06:49:22;;;;;;;;;;;;;;;;;;6296735;22;19937;-62
2023/03/05 06:51:56;;;;;;;;;;;;;;;;;;6297034;22;19925;-62
2023/03/05 06:54:23;;;;;;;;;;;;;;;;;;6268169;22;20006;-62
2023/03/05 06:56:57;;;;;;;;;;;;;;;;;;6297231;22;19918;-62
2023/03/05 06:59:24;;;;;;;;;;;;;;;;;;6296423;22;19993;-62
2023/03/05 07:01:51;;;;;;;;;;;;;;;;;;6299263;22;19925;-62
2023/03/05 07:04:25;;;;;;;;;;;;;;;;;;6300416;22;20001;-62
2023/03/05 07:06:52;;;;;;;;;;;;;;;;;;6298774;22;19942;-62
2023/03/05 07:09:19;;;;;;;;;;;;;;;;;;6298279;22;19990;-63
2023/03/05 07:11:53;;;;;;;;;;;;;;;;;;6298859;22;19990;-62
2023/03/05 07:14:20;;;;;;;;;;;;;;;;;;6298410;22;20486;-62
2023/03/05 07:16:54;;;;;;;;;;;;;;;;;;6298181;22;19918;-62
2023/03/05 07:19:21;;;;;;;;;;;;;;;;;;6298337;22;19914;-62
2023/03/05 07:21:48;;;;;;;;;;;;;;;;;;6296914;22;19993;-62
2023/03/05 07:24:26;;;;;;;;;;;;;;;;;;6298548;22;19929;-62
2023/03/05 07:26:53;;;;;;;;;;;;;;;;;;6298836;22;19952;-62
2023/03/05 07:29:26;;;;;;;;;;;;;;;;;;6296883;22;20006;-62
2023/03/05 07:31:53;;;;;;;;;;;;;;;;;;6297573;22;19923;-62
2023/03/05 07:34:20;;;;;;;;;;;;;;;;;;6296912;22;20355;-63
2023/03/05 07:36:54;;;;;;;;;;;;;;;;;;6298473;22;19999;-62
2023/03/05 07:39:21;;;;;;;;;;;;;;;;;;6297923;22;19993;-63
2023/03/05 07:41:55;;;;;;;;;;;;;;;;;;6299236;22;19949;-62
2023/03/05 07:44:22;;;;;;;;;;;;;;;;;;6298609;22;20285;-62
2023/03/05 07:46:56;;;;;;;;;;;;;;;;;;6298742;22;19925;-62
2023/03/05 07:49:30;;;;;;;;;;;;;;;;;;6297915;22;19997;-62
2023/03/05 07:51:57;;;;;;;;;;;;;;;;;;6297936;22;19945;-62
2023/03/05 07:54:31;;;;;;;;;;;;;;;;;;6296914;22;19953;-62
2023/03/05 07:56:58;;;;;;;;;;;;;;;;;;6295682;22;19919;-62
2023/03/05 07:59:25;;;;;;;;;;;;;;;;;;6296209;22;19918;-62
2023/03/05 08:01:59;;;;;;;;;;;;;;;;;;6297393;22;19925;-62
2023/03/05 08:04:26;;;;;;;;;;;;;;;;;;6298198;22;20202;-63
2023/03/05 08:07:00;;;;;;;;;;;;;;;;;;6298032;22;19919;-62
2023/03/05 08:09:27;;;;;;;;;;;;;;;;;;6297190;22;20412;-62
2023/03/05 08:11:54;;;;;;;;;;;;;;;;;;6297443;22;20407;-62
2023/03/05 08:14:28;;;;;;;;;;;;;;;;;;6298670;22;20005;-62
2023/03/05 08:16:55;;;;;;;;;;;;;;;;;;6298142;22;20001;-62
2023/03/05 08:19:29;;;;;;;;;;;;;;;;;;6298403;22;20305;-62
2023/03/05 08:21:56;;;;;;;;;;;;;;;;;;6298451;22;19919;-62
2023/03/05 08:24:28;;;;;;;;;;;;;;;;;;6295454;22;20034;-62
2023/03/05 08:27:02;;;;;;;;;;;;;;;;;;6291592;22;19919;-62
2023/03/05 08:29:29;;;;;;;;;;;;;;;;;;6294100;22;19918;-62
2023/03/05 08:32:03;;;;;;;;;;;;;;;;;;6296590;22;19919;-62
2023/03/05 08:34:30;;;;;;;;;;;;;;;;;;6296743;22;19926;-60
2023/03/05 08:36:57;;;;;;;;;;;;;;;;;;6298529;22;20351;-60
2023/03/05 08:39:31;;;;;;;;;;;;;;;;;;6297540;22;20006;-60
2023/03/05 08:41:58;;;;;;;;;;;;;;;;;;6297882;22;19919;-60
2023/03/05 08:44:25;;;;;;;;;;;;;;;;;;6294755;22;19993;-60
2023/03/05 08:46:59;;;;;;;;;;;;;;;;;;6297372;22;19969;-60
2023/03/05 08:49:26;;;;;;;;;;;;;;;;;;6296638;22;19972;-60
2023/03/05 08:52:00;;;;;;;;;;;;;;;;;;6272310;22;19997;-60
2023/03/05 08:54:27;;;;;;;;;;;;;;;;;;6297035;22;19918;-60
2023/03/05 08:56:54;;;;;;;;;;;;;;;;;;6298106;22;20006;-60
2023/03/05 08:59:28;;;;;;;;;;;;;;;;;;6297181;22;20005;-60
2023/03/05 09:01:55;;;;;;;;;;;;;;;;;;6297518;22;19995;-60
2023/03/05 09:04:29;;;;;;;;;;;;;;;;;;6297654;22;19954;-60
2023/03/05 09:06:56;;;;;;;;;;;;;;;;;;6298944;22;19919;-60
2023/03/05 09:09:23;;;;;;;;;;;;;;;;;;6295343;22;20256;-60
2023/03/05 09:11:57;;;;;;;;;;;;;;;;;;6297935;22;19918;-60
2023/03/05 09:14:24;;;;;;;;;;;;;;;;;;6296254;22;19923;-60
2023/03/05 09:16:58;;;;;;;;;;;;;;;;;;6297782;22;20001;-60
2023/03/05 09:19:26;;;;;;;;;;;;;;;;;;6296309;22;19942;-60
2023/03/05 09:21:53;;;;;;;;;;;;;;;;;;6295086;22;19915;-60
2023/03/05 09:24:27;;;;;;;;;;;;;;;;;;6297467;22;19929;-60
2023/03/05 09:26:54;;;;;;;;;;;;;;;;;;6297548;22;19923;-60
2023/03/05 09:29:30;;;;;;;;;;;;;;;;;;6296081;22;20001;-60
2023/03/05 09:31:57;;;;;;;;;;;;;;;;;;6297218;22;19925;-60
2023/03/05 09:34:24;;;;;;;;;;;;;;;;;;6298355;22;19976;-60
2023/03/05 09:36:57;;;;;;;;;;;;;;;;;;6296541;22;20514;-60
2023/03/05 09:39:24;;;;;;;;;;;;;;;;;;6298246;22;19923;-60
2023/03/05 09:41:58;;;;;;;;;;;;;;;;;;6297097;22;20303;-60
2023/03/05 09:44:25;;;;;;;;;;;;;;;;;;6297518;22;19921;-60
2023/03/05 09:46:52;;;;;;;;;;;;;;;;;;6297999;22;19918;-61
2023/03/05 09:49:26;;;;;;;;;;;;;;;;;;6298284;22;19961;-60
2023/03/05 09:51:53;;;;;;;;;;;;;;;;;;6297244;22;19915;-61
2023/03/05 09:54:27;;;;;;;;;;;;;;;;;;6297918;22;19919;-60
2023/03/05 09:56:57;;;;;;;;;;;;;;;;;;6293793;22;20323;-60
2023/03/05 09:59:30;;;;;;;;;;;;;;;;;;6295589;22;20229;-60
2023/03/05 10:01:57;;;;;;;;;;;;;;;;;;6297058;22;19990;-60
2023/03/05 10:04:31;;;;;;;;;;;;;;;;;;6297328;22;19921;-60
2023/03/05 10:06:58;;;;;;;;;;;;;;;;;;6297991;22;20597;-60
2023/03/05 10:09:25;;;;;;;;;;;;;;;;;;6296651;22;19918;-60
2023/03/05 10:12:01;;;;;;;;;;;;;;;;;;6295412;22;19961;-60
2023/03/05 10:14:28;;;;;;;;;;;;;;;;;;6296960;22;20042;-60
2023/03/05 10:16:55;;;;;;;;;;;;;;;;;;6296443;22;20325;-60
2023/03/05 10:19:29;;;;;;;;;;;;;;;;;;6267035;22;19990;-60
2023/03/05 10:22:03;;;;;;;;;;;;;;;;;;6266964;22;20378;-60
2023/03/05 10:24:30;;;;;;;;;;;;;;;;;;6266331;22;20296;-60
2023/03/05 10:27:04;;;;;;;;;;;;;;;;;;6264346;22;19965;-60
2023/03/05 10:29:31;;;;;;;;;;;;;;;;;;6266848;22;19919;-60
2023/03/05 10:32:05;;;;;;;;;;;;;;;;;;6266485;22;19947;-60
2023/03/05 10:34:32;;;;;;;;;;;;;;;;;;6265426;22;19926;-60
2023/03/05 10:37:06;;;;;;;;;;;;;;;;;;6266844;22;20001;-60
2023/03/05 10:39:33;;;;;;;;;;;;;;;;;;6269095;22;19919;-60
2023/03/05 10:42:07;;;;;;;;;;;;;;;;;;6267084;22;19986;-62
2023/03/05 10:44:34;;;;;;;;;;;;;;;;;;6268700;22;19930;-61
2023/03/05 10:47:01;;;;;;;;;;;;;;;;;;6268785;22;20006;-60
2023/03/05 10:49:35;;;;;;;;;;;;;;;;;;6268706;22;19919;-60
2023/03/05 10:52:02;;;;;;;;;;;;;;;;;;6269190;22;19915;-60
2023/03/05 10:54:29;;;;;;;;;;;;;;;;;;6268591;22;20014;-60
2023/03/05 10:57:03;;;;;;;;;;;;;;;;;;6267840;22;19918;-61
2023/03/05 10:59:37;;;;;;;;;;;;;;;;;;6267741;22;19947;-60
2023/03/05 11:02:04;;;;;;;;;;;;;;;;;;6269599;22;19919;-60
2023/03/05 11:04:38;;;;;;;;;;;;;;;;;;6269140;22;20291;-60
2023/03/05 11:07:05;;;;;;;;;;;;;;;;;;6269221;22;20311;-60
2023/03/05 11:09:39;;;;;;;;;;;;;;;;;;6271361;22;19915;-60
2023/03/05 11:12:09;;;;;;;;;;;;;;;;;;6271744;22;20003;-60
2023/03/05 11:14:42;;;;;;;;;;;;;;;;;;6270698;22;19945;-59
2023/03/05 11:17:09;;;;;;;;;;;;;;;;;;6272872;22;20035;-60
2023/03/05 11:19:43;;;;;;;;;;;;;;;;;;6301024;22;19925;-61
2023/03/05 11:22:10;;;;;;;;;;;;;;;;;;6301851;22;20403;-60
2023/03/05 11:24:47;;;;;;;;;;;;;;;;;;6301664;22;19925;-60
2023/03/05 11:27:14;;;;;;;;;;;;;;;;;;6302412;22;19999;-60
2023/03/05 11:29:48;;;;;;;;;;;;;;;;;;6302727;22;19997;-60
2023/03/05 11:32:15;;;;;;;;;;;;;;;;;;6301576;22;19968;-61
2023/03/05 11:34:49;;;;;;;;;;;;;;;;;;6301557;22;19919;-60
2023/03/05 11:37:19;;;;;;;;;;;;;;;;;;6301915;22;19946;-60
2023/03/05 11:39:52;;;;;;;;;;;;;;;;;;6302022;22;19986;-60
2023/03/05 11:42:23;;;;;;;;;;;;;;;;;;6301225;22;19986;-60
2023/03/05 11:44:51;;;;;;;;;;;;;;;;;;6301118;22;19915;-60
2023/03/05 11:47:24;;;;;;;;;;;;;;;;;;6299701;22;20555;-60
2023/03/05 11:49:51;;;;;;;;;;;;;;;;;;6297563;22;20320;-60
2023/03/05 11:52:25;;;;;;;;;;;;;;;;;;6301752;22;19919;-60
2023/03/05 11:54:52;;;;;;;;;;;;;;;;;;6300994;22;19914;-60
2023/03/05 11:57:26;;;;;;;;;;;;;;;;;;6298139;22;19918;-60
2023/03/05 11:59:53;;;;;;;;;;;;;;;;;;6299749;22;19918;-61
2023/03/05 12:02:20;;;;;;;;;;;;;;;;;;6301500;22;19989;-60
2023/03/05 12:04:54;;;;;;;;;;;;;;;;;;6297846;22;19942;-60
2023/03/05 12:07:21;;;;;;;;;;;;;;;;;;6300396;22;20637;-60
2023/03/05 12:09:55;;;;;;;;;;;;;;;;;;6298573;22;19946;-60
2023/03/05 12:12:22;;;;;;;;;;;;;;;;;;6301004;22;19997;-60
2023/03/05 12:14:56;;;;;;;;;;;;;;;;;;6300493;22;19915;-60
2023/03/05 12:17:23;;;;;;;;;;;;;;;;;;6301741;22;19919;-60
2023/03/05 12:19:56;;;;;;;;;;;;;;;;;;6300040;22;20358;-60
2023/03/05 12:22:23;;;;;;;;;;;;;;;;;;6300877;22;19950;-60
2023/03/05 12:24:57;;;;;;;;;;;;;;;;;;6300355;22;20021;-61
2023/03/05 12:27:24;;;;;;;;;;;;;;;;;;6301458;22;19922;-61
2023/03/05 12:30:00;;;;;;;;;;;;;;;;;;6301405;22;20252;-61
2023/03/05 12:32:27;;;;;;;;;;;;;;;;;;6300890;22;19972;-60
2023/03/05 12:35:03;;;;;;;;;;;;;;;;;;6300381;22;19918;-60
2023/03/05 12:37:30;;;;;;;;;;;;;;;;;;6301200;22;19919;-60
2023/03/05 12:40:06;;;;;;;;;;;;;;;;;;6300870;22;19985;-60
2023/03/05 12:42:34;;;;;;;;;;;;;;;;;;6301589;22;19986;-60
2023/03/05 12:45:01;;;;;;;;;;;;;;;;;;6296691;22;20288;-60
2023/03/05 12:47:35;;;;;;;;;;;;;;;;;;6298433;22;19933;-60
2023/03/05 12:50:03;;;;;;;;;;;;;;;;;;6301355;22;19926;-60
2023/03/05 12:52:38;;;;;;;;;;;;;;;;;;6300964;22;19977;-60
2023/03/05 12:55:05;;;;;;;;;;;;;;;;;;6299845;22;20017;-60
2023/03/05 12:57:32;;;;;;;;;;;;;;;;;;6301006;22;20328;-60
2023/03/05 13:00:07;;;;;;;;;;;;;;;;;;6297065;22;19918;-61
2023/03/05 13:02:34;;;;;;;;;;;;;;;;;;6298809;22;20007;-60
2023/03/05 13:05:02;;;;;;;;;;;;;;;;;;6294433;22;20350;-60
2023/03/05 13:07:35;;;;;;;;;;;;;;;;;;6297711;22;19923;-60
2023/03/05 13:10:02;;;;;;;;;;;;;;;;;;6291843;22;20025;-56
2023/03/05 13:12:36;;;;;;;;;;;;;;;;;;6298052;22;19925;-47
2023/03/05 13:15:03;;;;;;;;;;;;;;;;;;6292747;22;19919;-51
2023/03/05 13:17:43;;;;;;;;;;;;;;;;;;6297478;22;19922;-50
2023/03/05 13:20:10;;;;;;;;;;;;;;;;;;6298147;22;20001;-47
2023/03/05 13:22:44;;;;;;;;;;;;;;;;;;6297628;22;19914;-52
2023/03/05 13:25:11;;;;;;;;;;;;;;;;;;6297390;22;19921;-50
2023/03/05 13:27:38;;;;;;;;;;;;;;;;;;6297905;22;19925;-53
2023/03/05 13:30:12;;;;;;;;;;;;;;;;;;6296556;22;20033;-51
2023/03/05 13:32:39;;;;;;;;;;;;;;;;;;6297529;22;20259;-54
2023/03/05 13:35:07;;;;;;;;;;;;;;;;;;6296620;22;19918;-50
2023/03/05 13:37:40;;;;;;;;;;;;;;;;;;6294789;22;20355;-47
2023/03/05 13:40:14;;;;;;;;;;;;;;;;;;6297323;22;19925;-52
2023/03/05 13:42:41;;;;;;;;;;;;;;;;;;6295623;22;20342;-52
2023/03/05 13:45:15;;;;;;;;;;;;;;;;;;6296456;22;19922;-50
2023/03/05 13:47:42;;;;;;;;;;;;;;;;;;6297468;22;19919;-51
2023/03/05 13:50:09;;;;;;;;;;;;;;;;;;6294720;22;20427;-51
2023/03/05 13:52:51;;;;;;;;;;;;;;;;;;6273236;22;19990;-54
2023/03/05 13:55:18;;;;;;;;;;;;;;;;;;6296609;22;20281;-51
2023/03/05 13:57:51;;;;;;;;;;;;;;;;;;6297114;22;19950;-54
2023/03/05 14:00:19;;;;;;;;;;;;;;;;;;6293336;22;20448;-53
2023/03/05 14:02:52;;;;;;;;;;;;;;;;;;6297362;22;20001;-55
2023/03/05 14:05:19;;;;;;;;;;;;;;;;;;6296089;22;20001;-50
2023/03/05 14:07:54;;;;;;;;;;;;;;;;;;6297067;22;19953;-47
2023/03/05 14:10:21;;;;;;;;;;;;;;;;;;6297461;22;19921;-52
2023/03/05 14:12:55;;;;;;;;;;;;;;;;;;6296582;22;19990;-54
2023/03/05 14:15:22;;;;;;;;;;;;;;;;;;6295924;22;20301;-52
2023/03/05 14:18:02;;;;;;;;;;;;;;;;;;6296365;22;20005;-49
2023/03/05 14:20:29;;;;;;;;;;;;;;;;;;6297044;22;19925;-53
2023/03/05 14:23:03;;;;;;;;;;;;;;;;;;6294502;22;20396;-52
2023/03/05 14:25:32;;;;;;;;;;;;;;;;;;6295870;22;20391;-54
2023/03/05 14:28:06;;;;;;;;;;;;;;;;;;6297607;22;20347;-52
2023/03/05 14:30:34;;;;;;;;;;;;;;;;;;6293490;22;20002;-53
2023/03/05 14:33:02;;;;;;;;;;;;;;;;;;6296352;22;19918;-52
2023/03/05 14:35:35;;;;;;;;;;;;;;;;;;6296974;22;20005;-53
2023/03/05 14:38:02;;;;;;;;;;;;;;;;;;6295022;22;19926;-49
2023/03/05 14:40:36;;;;;;;;;;;;;;;;;;6295969;22;19945;-51
2023/03/05 14:43:03;;;;;;;;;;;;;;;;;;6296301;22;19942;-51
2023/03/05 14:45:37;;;;;;;;;;;;;;;;;;6295263;22;19954;-52
2023/03/05 14:48:04;;;;;;;;;;;;;;;;;;6296295;22;20252;-48
2023/03/05 14:50:38;;;;;;;;;;;;;;;;;;6295004;22;19918;-51
2023/03/05 14:53:05;;;;;;;;;;;;;;;;;;6294105;22;20347;-54
2023/03/05 14:55:32;;;;;;;;;;;;;;;;;;6294086;22;19925;-53
2023/03/05 14:58:06;;;;;;;;;;;;;;;;;;6294008;22;19918;-54
2023/03/05 15:00:33;;;;;;;;;;;;;;;;;;6292944;22;20351;-51
2023/03/05 15:03:00;;;;;;;;;;;;;;;;;;6293787;22;20001;-53
2023/03/05 15:05:34;;;;;;;;;;;;;;;;;;6293422;22;19919;-49
2023/03/05 15:08:12;;;;;;;;;;;;;;;;;;6294772;22;20038;-52
2023/03/05 15:10:39;;;;;;;;;;;;;;;;;;6295704;22;20345;-55
2023/03/05 15:13:06;;;;;;;;;;;;;;;;;;6295499;22;20001;-47
2023/03/05 15:15:40;;;;;;;;;;;;;;;;;;6295206;22;19942;-51
2023/03/05 15:18:14;;;;;;;;;;;;;;;;;;6295337;22;20094;-49
2023/03/05 15:20:42;;;;;;;;;;;;;;;;;;6296920;22;19918;-46
2023/03/05 15:23:09;;;;;;;;;;;;;;;;;;6297038;22;20097;-49
2023/03/05 15:25:42;;;;;;;;;;;;;;;;;;6298585;22;20009;-48
2023/03/05 15:28:09;;;;;;;;;;;;;;;;;;6297895;22;20628;-52
2023/03/05 15:30:43;;;;;;;;;;;;;;;;;;6294985;22;20001;-50
2023/03/05 15:33:10;;;;;;;;;;;;;;;;;;6297828;22;19964;-46
2023/03/05 15:35:37;;;;;;;;;;;;;;;;;;6297817;22;20022;-52
2023/03/05 15:38:11;;;;;;;;;;;;;;;;;;6297859;22;19919;-49
2023/03/05 15:40:38;;;;;;;;;;;;;;;;;;6296414;22;20026;-48
2023/03/05 15:43:12;;;;;;;;;;;;;;;;;;6295591;22;19964;-49
2023/03/05 15:45:39;;;;;;;;;;;;;;;;;;6296486;22;19989;-46
2023/03/05 15:48:06;;;;;;;;;;;;;;;;;;6295481;22;20443;-53
2023/03/05 15:50:40;;;;;;;;;;;;;;;;;;6298442;22;19949;-49
2023/03/05 15:53:09;;;;;;;;;;;;;;;;;;6296642;22;19959;-55
2023/03/05 15:55:36;;;;;;;;;;;;;;;;;;6298651;22;20344;-49
2023/03/05 15:58:10;;;;;;;;;;;;;;;;;;6297244;22;19925;-49
2023/03/05 16:00:37;;;;;;;;;;;;;;;;;;6297932;22;19985;-53
2023/03/05 16:03:11;;;;;;;;;;;;;;;;;;6297384;22;20001;-49
2023/03/05 16:05:38;;;;;;;;;;;;;;;;;;6269768;22;19972;-51
2023/03/05 16:08:05;;;;;;;;;;;;;;;;;;6297141;22;20619;-50
2023/03/05 16:10:39;;;;;;;;;;;;;;;;;;6298279;22;20002;-52
2023/03/05 16:13:06;;;;;;;;;;;;;;;;;;6297228;22;19980;-48
2023/03/05 16:15:34;;;;;;;;;;;;;;;;;;6298180;22;19918;-53
2023/03/05 16:18:07;;;;;;;;;;;;;;;;;;6296120;22;19919;-51
2023/03/05 16:20:35;;;;;;;;;;;;;;;;;;6298827;22;19918;-53
2023/03/05 16:23:08;;;;;;;;;;;;;;;;;;6293309;22;20002;-50
2023/03/05 16:25:35;;;;;;;;;;;;;;;;;;6295616;22;19930;-53
2023/03/05 16:28:09;;;;;;;;;;;;;;;;;;6296887;22;19950;-54
2023/03/05 16:30:37;;;;;;;;;;;;;;;;;;6277576;22;19919;-49
2023/03/05 16:33:04;;;;;;;;;;;;;;;;;;6294695;22;20339;-51
2023/03/05 16:35:37;;;;;;;;;;;;;;;;;;6297382;22;19989;-52
2023/03/05 16:38:05;;;;;;;;;;;;;;;;;;6270472;22;19919;-52
2023/03/05 16:40:39;;;;;;;;;;;;;;;;;;6297178;22;20010;-52
2023/03/05 16:43:26;;;;;;;;;;;;;;;;;;6296608;22;19930;-55
2023/03/05 16:46:00;;;;;;;;;;;;;;;;;;6297146;22;19921;-53
2023/03/05 16:48:27;;;;;;;;;;;;;;;;;;6296262;22;20001;-49
2023/03/05 16:50:56;;;;;;;;;;;;;;;;;;6296517;22;19954;-52
2023/03/05 16:53:30;;;;;;;;;;;;;;;;;;6296560;22;19929;-53
2023/03/05 16:55:57;;;;;;;;;;;;;;;;;;6296738;22;20598;-48
2023/03/05 16:58:32;;;;;;;;;;;;;;;;;;6296593;22;19965;-46
2023/03/05 17:00:59;;;;;;;;;;;;;;;;;;6295854;22;20193;-48
2023/03/05 17:03:26;;;;;;;;;;;;;;;;;;6294446;22;19918;-47
2023/03/05 17:06:00;;;;;;;;;;;;;;;;;;6294709;22;19922;-48